createdAt,value
2018-12-04T00:01:36.949Z,1.20
2018-12-04T00:04:06.447Z,0.70
2018-12-04T00:06:35.953Z,1.50
2018-12-04T00:09:06.938Z,0.80
2018-12-04T00:11:36.318Z,0.80
2018-12-04T00:14:06.474Z,0.73
2018-12-04T00:16:36.020Z,0.57
2018-12-04T00:19:05.657Z,0.60
2018-12-04T00:21:34.707Z,0.90
2018-12-04T00:24:03.579Z,0.60
2018-12-04T00:26:32.443Z,0.50
2018-12-04T00:29:01.297Z,0.60
2018-12-04T00:31:30.214Z,0.50
2018-12-04T00:33:59.123Z,0.63
2018-12-04T00:36:27.955Z,2.20
2018-12-04T00:38:56.795Z,0.80
2018-12-04T00:41:25.719Z,0.70
2018-12-04T00:43:54.879Z,0.50
2018-12-04T00:46:24.137Z,0.90
2018-12-04T00:48:54.060Z,0.67
2018-12-04T00:51:24.236Z,0.63
2018-12-04T00:53:53.449Z,0.57
2018-12-04T00:56:24.137Z,0.80
2018-12-04T00:58:53.672Z,0.73
2018-12-04T01:01:22.891Z,0.70
2018-12-04T01:03:51.988Z,0.70
2018-12-04T01:06:21.245Z,0.90
2018-12-04T01:08:50.369Z,0.70
2018-12-04T01:11:19.324Z,0.70
2018-12-04T01:13:48.743Z,0.63
2018-12-04T01:16:18.944Z,0.90
2018-12-04T01:18:48.437Z,0.93
2018-12-04T01:21:18.053Z,0.70
2018-12-04T01:23:47.328Z,0.70
2018-12-04T01:26:16.296Z,0.73
2018-12-04T01:28:45.307Z,0.90
2018-12-04T01:31:14.242Z,0.63
2018-12-04T01:33:43.623Z,0.70
2018-12-04T01:36:12.836Z,1.30
2018-12-04T01:38:41.735Z,0.90
2018-12-04T01:41:10.590Z,1.00
2018-12-04T01:43:39.516Z,1.03
2018-12-04T01:46:08.491Z,0.73
2018-12-04T01:48:37.568Z,0.60
2018-12-04T01:51:06.531Z,0.90
2018-12-04T01:53:35.395Z,1.00
2018-12-04T01:56:04.363Z,0.63
2018-12-04T01:58:33.379Z,0.87
2018-12-04T02:01:02.597Z,0.97
2018-12-04T02:03:31.639Z,1.17
2018-12-04T02:06:00.864Z,0.80
2018-12-04T02:08:30.216Z,1.10
2018-12-04T02:10:59.410Z,1.47
2018-12-04T02:13:28.769Z,1.10
2018-12-04T02:15:58.219Z,0.70
2018-12-04T02:18:27.765Z,1.23
2018-12-04T02:20:57.726Z,0.90
2018-12-04T02:23:26.911Z,1.13
2018-12-04T02:25:57.027Z,1.13
2018-12-04T02:28:41.411Z,1.13
2018-12-04T02:31:12.176Z,1.67
2018-12-04T02:33:42.293Z,1.63
2018-12-04T02:36:12.293Z,1.40
2018-12-04T02:38:42.484Z,1.50
2018-12-04T02:41:12.868Z,1.40
2018-12-04T02:43:43.073Z,1.30
2018-12-04T02:46:13.786Z,1.70
2018-12-04T02:48:43.829Z,1.30
2018-12-04T02:51:14.235Z,1.80
2018-12-04T02:53:43.816Z,1.73
2018-12-04T02:56:13.565Z,1.10
2018-12-04T02:58:43.941Z,1.40
2018-12-04T03:01:14.322Z,1.50
2018-12-04T03:03:44.148Z,1.20
2018-12-04T03:06:13.662Z,1.70
2018-12-04T03:08:43.996Z,1.40
2018-12-04T03:11:13.971Z,1.33
2018-12-04T03:13:44.250Z,1.33
2018-12-04T03:16:14.696Z,1.40
2018-12-04T03:18:44.800Z,1.20
2018-12-04T03:21:14.180Z,1.30
2018-12-04T03:23:44.546Z,0.97
2018-12-04T03:26:14.523Z,0.90
2018-12-04T03:28:44.540Z,1.30
2018-12-04T03:31:14.155Z,1.30
2018-12-04T03:33:44.496Z,0.80
2018-12-04T03:36:14.260Z,1.17
2018-12-04T03:38:45.069Z,0.90
2018-12-04T03:41:15.920Z,1.43
2018-12-04T03:43:45.369Z,1.27
2018-12-04T03:46:15.617Z,1.10
2018-12-04T03:48:44.986Z,1.00
2018-12-04T03:51:14.046Z,1.03
2018-12-04T03:53:43.160Z,1.23
2018-12-04T03:56:12.139Z,1.43
2018-12-04T03:58:41.150Z,2.07
2018-12-04T04:01:10.241Z,1.20
2018-12-04T04:03:39.169Z,1.17
2018-12-04T04:06:08.207Z,1.97
2018-12-04T04:08:37.617Z,0.90
2018-12-04T04:11:06.605Z,1.10
2018-12-04T04:13:35.794Z,1.40
2018-12-04T04:16:04.901Z,1.13
2018-12-04T04:18:33.829Z,1.60
2018-12-04T04:21:03.026Z,1.20
2018-12-04T04:23:32.544Z,1.37
2018-12-04T04:26:01.600Z,1.30
2018-12-04T04:28:30.637Z,1.90
2018-12-04T04:31:00.056Z,1.63
2018-12-04T04:33:29.551Z,1.57
2018-12-04T04:35:59.688Z,1.77
2018-12-04T04:38:28.840Z,1.50
2018-12-04T04:40:57.979Z,1.23
2018-12-04T04:43:26.879Z,1.53
2018-12-04T04:45:56.036Z,1.20
2018-12-04T04:48:25.191Z,1.20
2018-12-04T04:50:54.342Z,1.20
2018-12-04T04:53:23.708Z,0.83
2018-12-04T04:55:53.786Z,1.57
2018-12-04T04:58:23.813Z,1.30
2018-12-04T05:00:54.059Z,1.30
2018-12-04T05:03:23.955Z,0.83
2018-12-04T05:05:53.430Z,1.03
2018-12-04T05:08:22.768Z,1.30
2018-12-04T05:10:53.533Z,1.17
2018-12-04T05:13:22.499Z,0.93
2018-12-04T05:15:51.354Z,1.10
2018-12-04T05:18:20.206Z,1.30
2018-12-04T05:20:49.089Z,1.40
2018-12-04T05:23:17.910Z,0.97
2018-12-04T05:25:47.294Z,1.10
2018-12-04T05:28:17.599Z,1.30
2018-12-04T05:30:47.181Z,1.13
2018-12-04T05:33:16.448Z,1.07
2018-12-04T05:35:46.137Z,1.60
2018-12-04T05:38:15.905Z,1.10
2018-12-04T05:40:45.871Z,1.20
2018-12-04T05:43:15.368Z,1.07
2018-12-04T05:45:45.026Z,1.00
2018-12-04T05:48:14.545Z,1.40
2018-12-04T05:50:44.063Z,1.10
2018-12-04T05:53:26.205Z,1.00
2018-12-04T05:55:55.353Z,1.30
2018-12-04T05:58:24.864Z,2.37
2018-12-04T06:00:53.951Z,1.30
2018-12-04T06:03:23.204Z,1.40
2018-12-04T06:05:52.766Z,1.10
2018-12-04T06:08:22.138Z,1.90
2018-12-04T06:10:51.140Z,1.13
2018-12-04T06:13:20.503Z,1.30
2018-12-04T06:15:49.992Z,1.23
2018-12-04T06:18:19.312Z,1.37
2018-12-04T06:20:48.759Z,1.70
2018-12-04T06:23:18.776Z,1.80
2018-12-04T06:25:48.141Z,1.73
2018-12-04T06:28:17.344Z,2.03
2018-12-04T06:30:46.703Z,1.70
2018-12-04T06:33:15.539Z,1.20
2018-12-04T06:35:44.473Z,1.77
2018-12-04T06:38:13.367Z,1.87
2018-12-04T06:40:42.341Z,1.67
2018-12-04T06:43:11.362Z,1.80
2018-12-04T06:45:40.436Z,1.90
2018-12-04T06:48:11.230Z,1.63
2018-12-04T06:50:40.235Z,1.37
2018-12-04T06:53:09.248Z,1.60
2018-12-04T06:55:39.258Z,1.87
2018-12-04T06:58:08.413Z,1.90
2018-12-04T07:00:37.842Z,1.90
2018-12-04T07:03:07.483Z,2.40
2018-12-04T07:05:36.932Z,2.60
2018-12-04T07:08:06.158Z,2.30
2018-12-04T07:10:35.499Z,1.50
2018-12-04T07:13:04.747Z,1.93
2018-12-04T07:15:34.049Z,1.50
2018-12-04T07:18:03.900Z,2.27
2018-12-04T07:20:33.656Z,2.67
2018-12-04T07:23:03.469Z,1.70
2018-12-04T07:25:32.844Z,2.40
2018-12-04T07:28:02.059Z,1.40
2018-12-04T07:30:31.518Z,1.23
2018-12-04T07:33:01.872Z,2.80
2018-12-04T07:35:31.172Z,2.70
2018-12-04T07:38:01.075Z,1.80
2018-12-04T07:40:30.609Z,2.00
2018-12-04T07:43:00.092Z,1.77
2018-12-04T07:45:29.770Z,2.80
2018-12-04T07:47:59.381Z,2.13
2018-12-04T07:50:29.322Z,2.10
2018-12-04T07:52:59.571Z,2.30
2018-12-04T07:55:29.060Z,1.10
2018-12-04T07:57:58.874Z,2.27
2018-12-04T08:00:28.175Z,1.93
2018-12-04T08:02:57.408Z,2.00
2018-12-04T08:05:26.521Z,1.70
2018-12-04T08:07:56.298Z,1.83
2018-12-04T08:10:25.290Z,1.57
2018-12-04T08:12:54.243Z,1.60
2018-12-04T08:15:23.460Z,2.20
2018-12-04T08:17:52.827Z,2.00
2018-12-04T08:20:22.544Z,2.13
2018-12-04T08:22:52.323Z,1.50
2018-12-04T08:25:21.532Z,2.00
2018-12-04T08:27:51.031Z,2.17
2018-12-04T08:30:20.020Z,1.40
2018-12-04T08:32:49.163Z,1.50
2018-12-04T08:35:18.401Z,2.00
2018-12-04T08:37:47.413Z,1.53
2018-12-04T08:40:16.702Z,1.57
2018-12-04T08:42:45.918Z,1.90
2018-12-04T08:45:16.277Z,1.67
2018-12-04T08:47:45.496Z,1.77
2018-12-04T08:50:14.637Z,1.60
2018-12-04T08:52:43.845Z,1.67
2018-12-04T08:55:12.918Z,1.77
2018-12-04T08:57:41.899Z,1.97
2018-12-04T09:00:11.337Z,2.40
2018-12-04T09:02:40.477Z,1.97
2018-12-04T09:05:09.714Z,1.63
2018-12-04T09:07:39.257Z,1.70
2018-12-04T09:10:08.578Z,1.90
2018-12-04T09:12:38.142Z,1.90
2018-12-04T09:15:07.736Z,1.70
2018-12-04T09:17:36.899Z,2.00
2018-12-04T09:20:07.489Z,3.93
2018-12-04T09:22:36.618Z,1.53
2018-12-04T09:25:05.551Z,1.90
2018-12-04T09:27:36.145Z,1.70
2018-12-04T09:30:06.950Z,1.83
2018-12-04T09:32:35.950Z,2.23
2018-12-04T09:35:05.545Z,1.30
2018-12-04T09:37:34.960Z,2.00
2018-12-04T09:40:05.192Z,1.80
2018-12-04T09:42:34.691Z,1.70
2018-12-04T09:45:04.103Z,1.67
2018-12-04T09:47:33.147Z,2.20
2018-12-04T09:50:02.239Z,2.20
2018-12-04T09:52:31.690Z,2.37
2018-12-04T09:55:56.154Z,2.00
2018-12-04T09:58:25.048Z,1.80
2018-12-04T10:00:55.639Z,2.90
2018-12-04T10:03:29.016Z,2.03
2018-12-04T10:05:59.013Z,2.00
2018-12-04T10:08:28.050Z,1.60
2018-12-04T10:10:58.440Z,1.80
2018-12-04T10:13:28.064Z,1.67
2018-12-04T10:16:06.223Z,2.17
2018-12-04T10:18:47.550Z,2.00
2018-12-04T10:21:15.231Z,2.00
2018-12-04T10:23:47.094Z,2.50
2018-12-04T10:26:19.713Z,1.73
2018-12-04T10:28:50.061Z,2.07
2018-12-04T10:31:21.706Z,1.77
2018-12-04T10:33:50.615Z,1.57
2018-12-04T10:36:19.660Z,2.30
2018-12-04T10:38:49.961Z,1.60
2018-12-04T10:41:29.401Z,2.20
2018-12-04T10:43:58.308Z,2.03
2018-12-04T10:46:27.437Z,2.40
2018-12-04T10:48:56.602Z,2.53
2018-12-04T10:51:27.599Z,2.63
2018-12-04T10:53:57.083Z,2.30
2018-12-04T10:56:26.260Z,2.57
2018-12-04T10:58:55.480Z,1.80
2018-12-04T11:01:30.505Z,2.47
2018-12-04T11:03:59.732Z,2.03
2018-12-04T11:06:29.992Z,1.87
2018-12-04T11:11:56.945Z,1.73
2018-12-04T11:14:26.114Z,2.30
2018-12-04T11:17:05.150Z,3.30
2018-12-04T11:19:35.721Z,1.70
2018-12-04T11:22:22.806Z,1.50
2018-12-04T11:24:53.578Z,1.80
2018-12-04T11:27:26.749Z,1.83
2018-12-04T11:29:57.026Z,1.20
2018-12-04T11:32:29.096Z,1.20
2018-12-04T11:35:06.208Z,1.13
2018-12-04T11:37:39.225Z,1.37
2018-12-04T11:40:11.702Z,1.30
2018-12-04T11:42:47.023Z,1.10
2018-12-04T11:45:20.263Z,1.10
2018-12-04T11:47:49.574Z,1.20
2018-12-04T11:50:19.819Z,1.10
2018-12-04T11:55:57.243Z,1.20
2018-12-04T12:01:33.615Z,1.70
2018-12-04T12:04:20.898Z,1.63
2018-12-04T12:06:54.184Z,1.60
2018-12-04T12:09:30.662Z,1.37
2018-12-04T12:12:06.651Z,1.80
2018-12-04T12:14:41.801Z,1.40
2018-12-04T12:22:21.590Z,0.90
2018-12-04T12:27:49.819Z,1.23
2018-12-04T12:36:29.335Z,1.10
2018-12-04T12:39:01.233Z,1.67
2018-12-04T12:41:31.347Z,1.50
2018-12-04T12:44:00.264Z,1.47
2018-12-04T12:46:29.172Z,1.10
2018-12-04T12:48:58.129Z,1.60
2018-12-04T12:51:27.095Z,1.17
2018-12-04T12:53:57.382Z,2.50
2018-12-04T12:56:26.323Z,1.20
2018-12-04T12:58:55.174Z,1.30
2018-12-04T13:01:24.217Z,1.20
2018-12-04T13:03:53.690Z,1.60
2018-12-04T13:06:22.744Z,0.97
2018-12-04T13:08:51.753Z,1.20
2018-12-04T13:11:21.151Z,0.87
2018-12-04T13:13:55.705Z,0.90
2018-12-04T13:16:24.994Z,1.10
2018-12-04T13:18:55.210Z,1.20
2018-12-04T13:21:25.860Z,0.80
2018-12-04T13:23:56.234Z,1.50
2018-12-04T13:26:25.863Z,1.43
2018-12-04T13:28:59.411Z,1.20
2018-12-04T13:31:31.231Z,1.47
2018-12-04T13:34:03.563Z,0.90
2018-12-04T13:36:40.298Z,2.10
2018-12-04T13:39:14.651Z,0.80
2018-12-04T13:41:46.906Z,0.73
2018-12-04T13:44:22.811Z,0.80
2018-12-04T13:46:55.382Z,1.30
2018-12-04T13:49:28.812Z,0.97
2018-12-04T13:52:04.130Z,0.97
2018-12-04T13:54:37.108Z,1.10
2018-12-04T13:57:12.091Z,1.00
2018-12-04T13:59:57.091Z,0.70
2018-12-04T14:02:34.501Z,0.60
2018-12-04T14:05:09.945Z,0.60
2018-12-04T14:07:44.052Z,0.70
2018-12-04T14:10:15.089Z,0.80
2018-12-04T14:12:47.835Z,0.87
2018-12-04T14:15:21.410Z,1.17
2018-12-04T14:17:54.668Z,1.53
2018-12-04T14:20:23.679Z,1.53
2018-12-04T14:38:17.875Z,1.53
2018-12-04T14:40:53.683Z,1.50
2018-12-04T14:43:24.813Z,1.17
2018-12-04T14:46:05.985Z,0.90
2018-12-04T14:48:39.856Z,1.50
2018-12-04T14:51:24.182Z,1.27
2018-12-04T14:54:03.974Z,1.67
2018-12-04T15:00:17.622Z,1.23
2018-12-04T15:02:47.599Z,2.80
2018-12-04T15:05:17.626Z,2.33
2018-12-04T15:07:51.121Z,1.63
2018-12-04T15:10:39.869Z,3.73
2018-12-04T15:13:12.532Z,2.70
2018-12-04T15:15:44.260Z,1.50
2018-12-04T15:18:13.406Z,1.70
2018-12-04T15:20:54.179Z,2.40
2018-12-04T15:23:25.823Z,1.97
2018-12-04T15:25:55.894Z,2.20
2018-12-04T15:28:26.935Z,1.73
2018-12-04T15:30:58.759Z,1.40
2018-12-04T15:33:29.628Z,1.67
2018-12-04T15:35:59.726Z,1.37
2018-12-04T15:38:28.956Z,1.20
2018-12-04T15:41:02.903Z,1.47
2018-12-04T15:43:33.722Z,2.07
2018-12-04T15:46:05.605Z,2.17
2018-12-04T15:48:36.414Z,1.70
2018-12-04T15:51:14.195Z,1.40
2018-12-04T15:53:45.394Z,1.50
2018-12-04T15:56:17.660Z,1.30
2018-12-04T15:58:53.613Z,1.50
2018-12-04T16:01:25.007Z,1.50
2018-12-04T16:03:55.475Z,2.33
2018-12-04T16:06:28.081Z,1.50
2018-12-04T16:09:03.120Z,1.97
2018-12-04T16:11:40.464Z,1.60
2018-12-04T16:14:19.040Z,2.03
2018-12-04T16:16:51.914Z,2.00
2018-12-04T16:19:24.793Z,1.80
2018-12-04T16:21:59.351Z,1.80
2018-12-04T16:24:28.174Z,2.10
2018-12-04T16:26:57.052Z,1.63
2018-12-04T16:29:25.921Z,1.23
2018-12-04T16:32:11.702Z,1.30
2018-12-04T16:37:41.475Z,2.00
2018-12-04T16:40:10.474Z,2.37
2018-12-04T16:42:39.471Z,2.50
2018-12-04T16:45:08.647Z,2.17
2018-12-04T16:47:37.496Z,2.30
2018-12-04T16:50:06.519Z,3.30
2018-12-04T16:52:35.618Z,3.47
2018-12-04T16:55:05.288Z,2.67
2018-12-04T16:57:34.123Z,2.87
2018-12-04T17:00:03.348Z,2.50
2018-12-04T17:02:32.159Z,3.00
2018-12-04T17:05:00.986Z,2.40
2018-12-04T17:07:29.851Z,2.80
2018-12-04T17:09:58.700Z,1.83
2018-12-04T17:12:27.528Z,2.73
2018-12-04T17:14:56.409Z,2.63
2018-12-04T17:17:25.345Z,3.30
2018-12-04T17:19:54.082Z,3.50
2018-12-04T17:22:22.982Z,2.93
2018-12-04T17:24:51.811Z,2.67
2018-12-04T17:27:20.784Z,2.87
2018-12-04T17:29:49.615Z,2.70
2018-12-04T17:32:18.443Z,3.00
2018-12-04T17:34:47.501Z,2.50
2018-12-04T17:37:16.321Z,2.27
2018-12-04T17:39:45.130Z,2.30
2018-12-04T17:42:14.103Z,2.87
2018-12-04T17:44:42.924Z,2.30
2018-12-04T17:47:11.763Z,2.03
2018-12-04T17:49:40.642Z,2.73
2018-12-04T17:52:09.460Z,3.33
2018-12-04T17:54:38.280Z,3.37
2018-12-04T17:57:07.151Z,3.60
2018-12-04T17:59:35.977Z,3.23
2018-12-04T18:02:04.997Z,3.97
2018-12-04T18:04:33.942Z,4.20
2018-12-04T18:07:02.777Z,3.57
2018-12-04T18:09:31.619Z,3.20
2018-12-04T18:12:02.633Z,3.43
2018-12-04T18:14:31.616Z,3.50
2018-12-04T18:17:00.463Z,3.00
2018-12-04T18:19:29.379Z,3.40
2018-12-04T18:21:58.198Z,3.10
2018-12-04T18:24:27.035Z,3.50
2018-12-04T18:26:55.868Z,3.03
2018-12-04T18:29:24.696Z,3.13
2018-12-04T18:31:53.539Z,3.30
2018-12-04T18:34:22.440Z,4.03
2018-12-04T18:36:51.251Z,3.27
2018-12-04T18:39:20.050Z,3.70
2018-12-04T18:41:48.984Z,4.20
2018-12-04T18:44:17.970Z,4.10
2018-12-04T18:46:46.894Z,4.47
2018-12-04T18:49:15.710Z,4.40
2018-12-04T18:51:45.107Z,3.80
2018-12-04T18:54:14.025Z,4.27
2018-12-04T18:56:42.895Z,5.83
2018-12-04T18:59:11.728Z,4.90
2018-12-04T19:01:40.772Z,4.90
2018-12-04T19:04:09.666Z,4.83
2018-12-04T19:06:38.517Z,5.70
2018-12-04T19:09:07.935Z,3.80
2018-12-04T19:11:36.836Z,4.90
2018-12-04T19:14:05.775Z,3.70
2018-12-04T19:16:34.596Z,4.03
2018-12-04T19:19:03.634Z,5.10
2018-12-04T19:21:32.474Z,5.00
2018-12-04T19:24:01.436Z,5.43
2018-12-04T19:26:30.286Z,4.97
2018-12-04T19:28:59.102Z,4.90
2018-12-04T19:31:27.981Z,5.73
2018-12-04T19:33:56.798Z,5.27
2018-12-04T19:36:25.626Z,5.77
2018-12-04T19:38:54.512Z,5.70
2018-12-04T19:41:23.347Z,4.50
2018-12-04T19:43:56.406Z,5.47
2018-12-04T19:46:23.367Z,8.60
2018-12-04T19:48:52.273Z,8.77
2018-12-04T19:51:21.071Z,5.70
2018-12-04T19:53:49.892Z,5.13
2018-12-04T19:56:18.794Z,6.67
2018-12-04T19:58:47.604Z,5.60
2018-12-04T20:01:18.560Z,5.77
2018-12-04T20:03:47.363Z,5.60
2018-12-04T20:06:16.180Z,5.73
2018-12-04T20:08:52.117Z,5.57
2018-12-04T20:11:21.255Z,6.60
2018-12-04T20:13:50.218Z,4.50
2018-12-04T20:16:19.119Z,3.97
2018-12-04T20:18:48.082Z,5.63
2018-12-04T20:21:17.057Z,5.93
2018-12-04T20:23:45.873Z,5.50
2018-12-04T20:26:14.706Z,6.40
2018-12-04T20:28:43.498Z,6.60
2018-12-04T20:31:12.349Z,6.23
2018-12-04T20:33:41.409Z,7.90
2018-12-04T20:36:10.249Z,6.60
2018-12-04T20:38:39.459Z,6.53
2018-12-04T20:41:08.266Z,6.07
2018-12-04T20:43:38.425Z,6.70
2018-12-04T20:46:07.312Z,5.83
2018-12-04T20:48:36.161Z,6.60
2018-12-04T20:51:05.051Z,5.70
2018-12-04T20:53:33.980Z,6.33
2018-12-04T20:56:03.079Z,6.17
2018-12-04T20:58:31.962Z,6.63
2018-12-04T21:01:01.096Z,5.53
2018-12-04T21:03:42.465Z,5.33
2018-12-04T21:06:12.792Z,5.80
2018-12-04T21:08:44.941Z,6.10
2018-12-04T21:11:28.616Z,5.53
2018-12-04T21:14:13.414Z,4.67
2018-12-04T21:19:01.931Z,6.07
2018-12-04T21:22:01.911Z,5.60
2018-12-04T21:24:45.062Z,5.97
2018-12-04T21:27:34.189Z,6.83
2018-12-04T21:30:19.223Z,6.87
2018-12-04T21:33:00.058Z,6.03
2018-12-04T21:35:40.204Z,7.53
2018-12-04T21:41:08.789Z,6.60
2018-12-04T21:43:43.614Z,7.57
2018-12-04T21:46:19.416Z,6.10
2018-12-04T21:48:48.681Z,6.00
2018-12-04T21:51:18.800Z,5.37
2018-12-04T21:53:48.555Z,5.17
2018-12-04T21:56:17.828Z,5.20
2018-12-04T21:58:47.321Z,4.73
2018-12-04T22:01:16.572Z,4.90
2018-12-04T22:03:45.914Z,5.00
2018-12-04T22:06:15.050Z,4.77
2018-12-04T22:08:44.146Z,4.67
2018-12-04T22:11:13.652Z,4.20
2018-12-04T22:13:42.832Z,4.27
2018-12-04T22:16:12.177Z,4.33
2018-12-04T22:18:41.534Z,4.90
2018-12-04T22:21:10.732Z,5.13
2018-12-04T22:23:40.128Z,4.37
2018-12-04T22:26:09.363Z,4.20
2018-12-04T22:28:38.715Z,5.70
2018-12-04T22:31:08.624Z,5.57
2018-12-04T22:33:37.935Z,5.43
2018-12-04T22:36:07.452Z,5.53
2018-12-04T22:38:36.783Z,6.10
2018-12-04T22:41:06.026Z,6.50
2018-12-04T22:43:36.771Z,5.10
2018-12-04T22:46:06.041Z,6.30
2018-12-04T22:48:35.414Z,5.50
2018-12-04T22:51:04.680Z,4.87
2018-12-04T22:53:33.979Z,6.00
2018-12-04T22:56:03.090Z,5.80
2018-12-04T22:58:33.530Z,6.00
2018-12-04T23:01:03.561Z,5.20
2018-12-04T23:03:32.673Z,5.60
2018-12-04T23:06:19.071Z,4.90
2018-12-04T23:08:54.222Z,4.07
2018-12-04T23:11:31.907Z,5.27
2018-12-04T23:14:09.103Z,4.47
2018-12-04T23:16:45.806Z,4.40
2018-12-04T23:19:21.003Z,4.30
2018-12-04T23:21:57.454Z,4.17
2018-12-04T23:24:36.376Z,4.63
2018-12-04T23:30:06.743Z,5.23
2018-12-04T23:32:37.483Z,4.90
2018-12-04T23:35:15.934Z,4.60
2018-12-04T23:37:46.604Z,3.70
2018-12-04T23:40:27.287Z,4.27
2018-12-04T23:42:59.457Z,4.67
2018-12-04T23:45:33.823Z,4.20
2018-12-04T23:48:15.266Z,4.60
2018-12-04T23:50:49.759Z,4.60
2018-12-04T23:53:20.691Z,5.13
2018-12-04T23:58:52.420Z,4.53
